sensor_id;sensor_type;location;lat;lon;timestamp;temperature;humidity
40630;DHT22;26329;40.388;-3.710;2022-10-16T00:03:11;19.30;50.80
40630;DHT22;26329;40.388;-3.710;2022-10-16T00:13:13;19.10;50.90
40630;DHT22;26329;40.388;-3.710;2022-10-16T00:23:15;18.90;51.30
40630;DHT22;26329;40.388;-3.710;2022-10-16T00:33:17;18.80;51.90
40630;DHT22;26329;40.388;-3.710;2022-10-16T00:53:41;18.70;52.10
40630;DHT22;26329;40.388;-3.710;2022-10-16T01:03:43;18.50;52.80
40630;DHT22;26329;40.388;-3.710;2022-10-16T01:13:51;18.40;53.50
40630;DHT22;26329;40.388;-3.710;2022-10-16T01:34:15;18.00;55.30
40630;DHT22;26329;40.388;-3.710;2022-10-16T01:44:28;17.90;55.70
40630;DHT22;26329;40.388;-3.710;2022-10-16T01:54:34;17.80;56.30
40630;DHT22;26329;40.388;-3.710;2022-10-16T02:15:24;17.40;57.40
40630;DHT22;26329;40.388;-3.710;2022-10-16T02:25:37;17.30;58.10
40630;DHT22;26329;40.388;-3.710;2022-10-16T02:35:44;17.20;58.80
40630;DHT22;26329;40.388;-3.710;2022-10-16T02:45:53;17.20;58.80
40630;DHT22;26329;40.388;-3.710;2022-10-16T02:55:59;17.20;58.60
40630;DHT22;26329;40.388;-3.710;2022-10-16T03:06:04;17.20;58.40
40630;DHT22;26329;40.388;-3.710;2022-10-16T03:16:10;17.20;57.70
40630;DHT22;26329;40.388;-3.710;2022-10-16T03:26:16;17.30;57.20
40630;DHT22;26329;40.388;-3.710;2022-10-16T03:36:20;17.20;57.60
40630;DHT22;26329;40.388;-3.710;2022-10-16T03:46:23;17.20;57.80
40630;DHT22;26329;40.388;-3.710;2022-10-16T03:56:29;16.90;59.40
40630;DHT22;26329;40.388;-3.710;2022-10-16T04:06:33;16.70;60.00
40630;DHT22;26329;40.388;-3.710;2022-10-16T04:16:36;16.30;60.50
40630;DHT22;26329;40.388;-3.710;2022-10-16T04:26:41;15.90;62.00
40630;DHT22;26329;40.388;-3.710;2022-10-16T04:36:46;15.80;62.50
40630;DHT22;26329;40.388;-3.710;2022-10-16T04:46:51;15.80;62.80
40630;DHT22;26329;40.388;-3.710;2022-10-16T04:56:53;15.60;63.90
40630;DHT22;26329;40.388;-3.710;2022-10-16T05:06:57;15.30;64.70
40630;DHT22;26329;40.388;-3.710;2022-10-16T05:17:00;15.10;64.90
40630;DHT22;26329;40.388;-3.710;2022-10-16T05:27:05;15.10;64.90
40630;DHT22;26329;40.388;-3.710;2022-10-16T05:37:08;15.10;64.90
40630;DHT22;26329;40.388;-3.710;2022-10-16T05:47:12;15.30;64.70
40630;DHT22;26329;40.388;-3.710;2022-10-16T05:57:16;15.30;64.80
40630;DHT22;26329;40.388;-3.710;2022-10-16T06:07:19;15.00;65.60
40630;DHT22;26329;40.388;-3.710;2022-10-16T06:17:22;14.80;66.40
40630;DHT22;26329;40.388;-3.710;2022-10-16T06:27:24;14.80;66.60
40630;DHT22;26329;40.388;-3.710;2022-10-16T06:37:27;14.80;66.50
40630;DHT22;26329;40.388;-3.710;2022-10-16T06:47:29;14.70;66.80
40630;DHT22;26329;40.388;-3.710;2022-10-16T06:57:31;14.50;67.10
40630;DHT22;26329;40.388;-3.710;2022-10-16T07:07:34;14.50;67.40
40630;DHT22;26329;40.388;-3.710;2022-10-16T07:17:36;14.40;67.60
40630;DHT22;26329;40.388;-3.710;2022-10-16T07:27:38;14.50;67.40
40630;DHT22;26329;40.388;-3.710;2022-10-16T07:37:44;14.80;67.10
40630;DHT22;26329;40.388;-3.710;2022-10-16T07:47:46;14.90;66.60
40630;DHT22;26329;40.388;-3.710;2022-10-16T07:57:48;15.30;65.50
40630;DHT22;26329;40.388;-3.710;2022-10-16T08:07:51;15.40;64.40
40630;DHT22;26329;40.388;-3.710;2022-10-16T08:18:04;15.70;63.90
40630;DHT22;26329;40.388;-3.710;2022-10-16T08:28:08;16.10;62.50
40630;DHT22;26329;40.388;-3.710;2022-10-16T08:38:10;16.40;61.00
40630;DHT22;26329;40.388;-3.710;2022-10-16T08:48:33;16.80;59.30
40630;DHT22;26329;40.388;-3.710;2022-10-16T08:58:37;17.30;58.00
40630;DHT22;26329;40.388;-3.710;2022-10-16T09:08:52;17.70;56.50
40630;DHT22;26329;40.388;-3.710;2022-10-16T09:19:45;18.20;52.60
40630;DHT22;26329;40.388;-3.710;2022-10-16T09:29:39;18.70;51.70
40630;DHT22;26329;40.388;-3.710;2022-10-16T09:39:47;19.00;50.70
40630;DHT22;26329;40.388;-3.710;2022-10-16T09:49:58;19.30;50.20
40630;DHT22;26329;40.388;-3.710;2022-10-16T10:00:09;19.70;49.90
40630;DHT22;26329;40.388;-3.710;2022-10-16T10:10:25;20.00;48.90
40630;DHT22;26329;40.388;-3.710;2022-10-16T10:51:53;21.10;46.40
40630;DHT22;26329;40.388;-3.710;2022-10-16T11:12:38;21.60;45.20
40630;DHT22;26329;40.388;-3.710;2022-10-16T11:22:48;21.80;45.00
40630;DHT22;26329;40.388;-3.710;2022-10-16T11:33:36;22.10;44.60
40630;DHT22;26329;40.388;-3.710;2022-10-16T11:43:42;22.30;43.40
40630;DHT22;26329;40.388;-3.710;2022-10-16T12:34:40;23.20;41.80
40630;DHT22;26329;40.388;-3.710;2022-10-16T12:44:44;23.40;41.40
40630;DHT22;26329;40.388;-3.710;2022-10-16T12:54:48;23.50;41.60
40630;DHT22;26329;40.388;-3.710;2022-10-16T13:04:57;23.70;41.50
40630;DHT22;26329;40.388;-3.710;2022-10-16T13:25:49;24.40;39.20
40630;DHT22;26329;40.388;-3.710;2022-10-16T13:35:55;24.60;39.60
40630;DHT22;26329;40.388;-3.710;2022-10-16T13:46:20;24.60;38.70
40630;DHT22;26329;40.388;-3.710;2022-10-16T13:56:26;24.60;38.90
40630;DHT22;26329;40.388;-3.710;2022-10-16T14:06:28;24.40;39.10
40630;DHT22;26329;40.388;-3.710;2022-10-16T14:16:31;24.50;38.70
40630;DHT22;26329;40.388;-3.710;2022-10-16T14:26:44;24.70;39.00
40630;DHT22;26329;40.388;-3.710;2022-10-16T14:36:45;24.90;38.10
40630;DHT22;26329;40.388;-3.710;2022-10-16T14:46:47;25.10;37.60
40630;DHT22;26329;40.388;-3.710;2022-10-16T14:56:58;25.20;37.10
40630;DHT22;26329;40.388;-3.710;2022-10-16T15:06:59;25.10;36.60
40630;DHT22;26329;40.388;-3.710;2022-10-16T15:17:01;25.10;36.70
40630;DHT22;26329;40.388;-3.710;2022-10-16T15:27:02;25.10;37.50
40630;DHT22;26329;40.388;-3.710;2022-10-16T15:37:04;25.10;37.60
40630;DHT22;26329;40.388;-3.710;2022-10-16T15:47:07;25.00;38.00
40630;DHT22;26329;40.388;-3.710;2022-10-16T15:57:08;24.90;38.00
40630;DHT22;26329;40.388;-3.710;2022-10-16T16:07:10;24.90;38.00
40630;DHT22;26329;40.388;-3.710;2022-10-16T16:17:12;24.80;37.40
40630;DHT22;26329;40.388;-3.710;2022-10-16T16:27:13;24.70;36.90
40630;DHT22;26329;40.388;-3.710;2022-10-16T16:37:15;24.60;38.00
40630;DHT22;26329;40.388;-3.710;2022-10-16T16:47:18;24.50;38.60
40630;DHT22;26329;40.388;-3.710;2022-10-16T16:57:20;24.30;39.00
40630;DHT22;26329;40.388;-3.710;2022-10-16T17:07:22;24.30;37.00
40630;DHT22;26329;40.388;-3.710;2022-10-16T17:17:25;24.20;36.50
40630;DHT22;26329;40.388;-3.710;2022-10-16T17:27:31;24.20;36.60
40630;DHT22;26329;40.388;-3.710;2022-10-16T17:37:34;23.90;36.70
40630;DHT22;26329;40.388;-3.710;2022-10-16T17:47:37;23.70;37.30
40630;DHT22;26329;40.388;-3.710;2022-10-16T17:57:38;23.50;36.90
40630;DHT22;26329;40.388;-3.710;2022-10-16T18:07:40;23.20;38.70
40630;DHT22;26329;40.388;-3.710;2022-10-16T18:17:45;23.00;38.60
40630;DHT22;26329;40.388;-3.710;2022-10-16T18:27:48;22.80;40.30
40630;DHT22;26329;40.388;-3.710;2022-10-16T18:37:50;22.70;39.00
40630;DHT22;26329;40.388;-3.710;2022-10-16T18:47:57;22.50;39.60
40630;DHT22;26329;40.388;-3.710;2022-10-16T18:57:58;22.30;41.00
40630;DHT22;26329;40.388;-3.710;2022-10-16T19:08:00;22.20;42.10
40630;DHT22;26329;40.388;-3.710;2022-10-16T19:18:01;22.00;45.30
40630;DHT22;26329;40.388;-3.710;2022-10-16T19:28:02;21.80;47.30
40630;DHT22;26329;40.388;-3.710;2022-10-16T19:38:08;21.60;48.20
40630;DHT22;26329;40.388;-3.710;2022-10-16T19:48:10;21.50;48.60
40630;DHT22;26329;40.388;-3.710;2022-10-16T19:58:13;21.30;49.00
40630;DHT22;26329;40.388;-3.710;2022-10-16T20:08:15;21.20;49.90
40630;DHT22;26329;40.388;-3.710;2022-10-16T20:18:17;21.10;50.00
40630;DHT22;26329;40.388;-3.710;2022-10-16T20:28:20;21.10;50.50
40630;DHT22;26329;40.388;-3.710;2022-10-16T20:38:22;21.20;50.20
40630;DHT22;26329;40.388;-3.710;2022-10-16T20:48:23;21.20;50.20
40630;DHT22;26329;40.388;-3.710;2022-10-16T20:58:25;21.10;50.30
40630;DHT22;26329;40.388;-3.710;2022-10-16T21:08:26;21.00;50.80
40630;DHT22;26329;40.388;-3.710;2022-10-16T21:18:28;20.90;50.50
40630;DHT22;26329;40.388;-3.710;2022-10-16T21:28:31;20.80;50.60
40630;DHT22;26329;40.388;-3.710;2022-10-16T21:38:33;20.80;51.10
40630;DHT22;26329;40.388;-3.710;2022-10-16T21:48:34;20.70;52.00
40630;DHT22;26329;40.388;-3.710;2022-10-16T21:58:36;20.60;51.70
40630;DHT22;26329;40.388;-3.710;2022-10-16T22:08:39;20.60;51.80
40630;DHT22;26329;40.388;-3.710;2022-10-16T22:18:41;20.60;52.10
40630;DHT22;26329;40.388;-3.710;2022-10-16T22:28:44;20.50;52.20
40630;DHT22;26329;40.388;-3.710;2022-10-16T22:38:46;20.40;52.80
40630;DHT22;26329;40.388;-3.710;2022-10-16T22:48:47;20.50;52.80
40630;DHT22;26329;40.388;-3.710;2022-10-16T22:58:49;20.50;53.30
40630;DHT22;26329;40.388;-3.710;2022-10-16T23:08:53;20.60;55.00
40630;DHT22;26329;40.388;-3.710;2022-10-16T23:18:54;20.60;57.00
40630;DHT22;26329;40.388;-3.710;2022-10-16T23:28:57;20.50;59.00
40630;DHT22;26329;40.388;-3.710;2022-10-16T23:38:59;20.50;58.00
40630;DHT22;26329;40.388;-3.710;2022-10-16T23:49:01;20.50;59.40
40630;DHT22;26329;40.388;-3.710;2022-10-16T23:59:03;20.60;55.60
